Pagina principale
METAR-TAF:

METAR-TAF

Aeroporti :

Aeroporto di Bruxelles-National. Zaventem

Bruxelles, Belgio

latitudine: 50-54N, longitudine: 004-32E, altezza: 55 m

Osservazione

Il bollettino è stato emesso 36 minuti fa, alle 22:20 UTC
Vento 6 kt da sud/sud-ovest
Temperature 16°C
Umidità 82%
Pressione 1019 hPa
Visibilità 10 km o più
Poco nuvoloso ad un'altezza di 3500 ft

METAR: EBBR 152220Z 20006KT 9999 FEW035 16/13 Q1019 NOSIG

Ora: 00:56 (22:56 UTC)

Previsione

Il bollettino è stato emesso 5 ore e 56 minuti fa, alle 17:00 UTC
Previsione valida dal 15 alle 18 UTC al 16 alle 24 UTC
Vento 7 kt da sud-ovest
Visibilità 10 km o più
Nubi sparse ad un'altezza di 3000 ft
Probabilità 30% :
Temporaneamente
dal 16 alle 22 UTC al 16 alle 24 UTC
Vento 15 kt da nord/nord-ovest con raffiche fino a 25 kt
Visibilità: 4000 m
rovesci di pioggia, temporale, pioggia

TAF: EBBR 151700Z 1518/1624 23007KT 9999 SCT030 PROB30 TEMPO 1622/1624 33015G25KT 4000 SHRA TSRA

Osservazioni e previsioni meteorologiche di più di 4000 aeroporti (messaggi METAR e TAF).

Le stazioni disponibili sono rappresentate dai dischi gialli e rossi sulla carta.

Puntare il mouse per vedere il nome della stazione.

Clicca sopra per visualizzare le osservazioni e previsioni meteorologiche.

Per cambiare la mappa : fare clic sui pulsanti verdi con una croce nera per ingrandire, il pulsante verde con un trattino per diminuire, o sulla freccia verde per le mappe adiacenti.


METAR-TAF: